createdAt,value
2018-11-26T00:00:36.701Z,28.40
2018-11-26T00:01:36.766Z,30.20
2018-11-26T00:03:36.685Z,28.60
2018-11-26T00:04:36.691Z,28.00
2018-11-26T00:05:36.699Z,28.50
2018-11-26T00:06:36.701Z,28.20
2018-11-26T00:07:36.699Z,29.20
2018-11-26T00:08:36.719Z,29.40
2018-11-26T00:09:36.707Z,29.30
2018-11-26T00:11:36.721Z,28.00
2018-11-26T00:12:36.718Z,27.90
2018-11-26T00:13:36.730Z,27.00
2018-11-26T00:14:36.737Z,28.70
2018-11-26T00:15:36.746Z,28.10
2018-11-26T00:16:36.732Z,29.70
2018-11-26T00:17:36.727Z,28.60
2018-11-26T00:18:36.743Z,29.30
2018-11-26T00:19:36.743Z,28.60
2018-11-26T00:20:36.749Z,31.20
2018-11-26T00:21:36.751Z,27.30
2018-11-26T00:22:36.756Z,28.00
2018-11-26T00:24:36.757Z,27.40
2018-11-26T00:25:36.818Z,28.90
2018-11-26T00:26:36.773Z,28.30
2018-11-26T00:27:36.772Z,27.60
2018-11-26T00:28:36.772Z,28.60
2018-11-26T00:30:36.785Z,27.50
2018-11-26T00:31:36.788Z,27.30
2018-11-26T00:32:36.791Z,27.10
2018-11-26T00:33:36.793Z,26.30
2018-11-26T00:34:36.800Z,27.60
2018-11-26T00:35:36.818Z,26.20
2018-11-26T00:36:36.806Z,27.90
2018-11-26T00:37:36.810Z,27.50
2018-11-26T00:38:36.935Z,27.50
2018-11-26T00:39:36.813Z,29.50
2018-11-26T00:40:36.814Z,28.10
2018-11-26T00:41:36.821Z,26.80
2018-11-26T00:42:36.828Z,26.30
2018-11-26T00:43:36.833Z,26.70
2018-11-26T00:44:36.881Z,26.80
2018-11-26T00:45:36.943Z,26.90
2018-11-26T00:46:36.840Z,25.80
2018-11-26T00:47:36.851Z,31.30
2018-11-26T00:48:36.849Z,28.10
2018-11-26T00:49:36.849Z,28.30
2018-11-26T00:50:36.856Z,28.20
2018-11-26T00:51:36.851Z,27.00
2018-11-26T00:52:36.890Z,27.10
2018-11-26T00:53:36.864Z,26.10
2018-11-26T00:54:36.879Z,25.90
2018-11-26T00:55:36.888Z,26.20
2018-11-26T00:56:36.880Z,25.20
2018-11-26T00:57:36.890Z,26.90
2018-11-26T00:58:36.881Z,25.70
2018-11-26T00:59:36.881Z,26.20
2018-11-26T01:00:36.893Z,26.90
2018-11-26T01:01:36.899Z,25.80
2018-11-26T01:02:36.913Z,26.60
2018-11-26T01:03:36.903Z,26.70
2018-11-26T01:04:36.905Z,26.20
2018-11-26T01:05:36.908Z,26.90
2018-11-26T01:06:36.916Z,25.10
2018-11-26T01:07:36.912Z,25.60
2018-11-26T01:08:36.916Z,25.50
2018-11-26T01:09:36.923Z,25.20
2018-11-26T01:10:36.932Z,25.60
2018-11-26T01:11:36.929Z,25.80
2018-11-26T01:12:36.934Z,24.80
2018-11-26T01:13:36.940Z,25.10
2018-11-26T01:14:36.940Z,26.20
2018-11-26T01:15:36.945Z,25.00
2018-11-26T01:16:36.937Z,25.20
2018-11-26T01:17:36.955Z,25.60
2018-11-26T01:18:36.951Z,24.50
2018-11-26T01:19:36.956Z,26.60
2018-11-26T01:20:36.957Z,25.10
2018-11-26T01:21:36.966Z,25.90
2018-11-26T01:22:36.972Z,24.80
2018-11-26T01:23:36.974Z,25.80
2018-11-26T01:24:36.987Z,24.90
2018-11-26T01:25:36.997Z,26.30
2018-11-26T01:26:37.005Z,25.40
2018-11-26T01:27:36.989Z,26.20
2018-11-26T01:28:37.008Z,25.30
2018-11-26T01:29:36.993Z,25.70
2018-11-26T01:30:36.999Z,25.10
2018-11-26T01:31:37.004Z,25.40
2018-11-26T01:32:36.999Z,26.10
2018-11-26T01:33:37.052Z,25.20
2018-11-26T01:34:37.015Z,24.80
2018-11-26T01:35:37.020Z,24.70
2018-11-26T01:36:37.028Z,24.80
2018-11-26T01:37:37.042Z,25.90
2018-11-26T01:38:37.042Z,27.80
2018-11-26T01:39:37.030Z,25.20
2018-11-26T01:40:37.035Z,24.70
2018-11-26T01:41:37.044Z,24.60
2018-11-26T01:42:37.046Z,26.60
2018-11-26T01:43:37.036Z,24.50
2018-11-26T01:44:37.037Z,24.70
2018-11-26T01:45:37.042Z,25.60
2018-11-26T01:46:37.047Z,26.70
2018-11-26T01:47:37.052Z,25.70
2018-11-26T01:48:37.054Z,24.90
2018-11-26T01:49:37.061Z,24.90
2018-11-26T01:50:37.073Z,24.70
2018-11-26T01:51:37.073Z,24.20
2018-11-26T01:52:37.078Z,24.40
2018-11-26T01:53:37.083Z,25.20
2018-11-26T01:54:37.105Z,25.80
2018-11-26T01:55:37.097Z,25.10
2018-11-26T01:56:37.111Z,24.60
2018-11-26T01:57:37.095Z,23.60
2018-11-26T01:58:37.092Z,25.20
2018-11-26T01:59:37.103Z,24.60
2018-11-26T02:00:37.105Z,25.50
2018-11-26T02:01:37.103Z,25.30
2018-11-26T02:02:37.111Z,24.20
2018-11-26T02:03:37.116Z,24.70
2018-11-26T02:04:37.124Z,23.80
2018-11-26T02:05:37.132Z,25.10
2018-11-26T02:06:37.137Z,23.80
2018-11-26T02:07:37.125Z,24.30
2018-11-26T02:08:37.136Z,24.10
2018-11-26T02:09:37.137Z,24.60
2018-11-26T02:10:37.147Z,24.30
2018-11-26T02:11:37.144Z,23.90
2018-11-26T02:12:37.145Z,24.20
2018-11-26T02:13:37.165Z,23.90
2018-11-26T02:14:37.150Z,23.70
2018-11-26T02:15:37.147Z,23.50
2018-11-26T02:16:37.157Z,24.20
2018-11-26T02:17:37.161Z,23.50
2018-11-26T02:18:37.166Z,25.20
2018-11-26T02:19:37.164Z,22.50
2018-11-26T02:20:37.196Z,23.20
2018-11-26T02:21:37.183Z,24.30
2018-11-26T02:22:37.220Z,24.10
2018-11-26T02:23:37.184Z,23.50
2018-11-26T02:24:37.207Z,23.00
2018-11-26T02:25:37.195Z,23.50
2018-11-26T02:26:37.211Z,23.80
2018-11-26T02:27:37.196Z,23.00
2018-11-26T02:28:37.198Z,22.00
2018-11-26T02:29:37.201Z,23.50
2018-11-26T02:30:37.207Z,22.80
2018-11-26T02:31:37.213Z,24.20
2018-11-26T02:32:37.218Z,23.40
2018-11-26T02:33:37.219Z,23.80
2018-11-26T02:34:37.226Z,23.30
2018-11-26T02:35:37.231Z,23.10
2018-11-26T02:36:37.244Z,23.40
2018-11-26T02:37:37.234Z,23.00
2018-11-26T02:38:37.246Z,23.90
2018-11-26T02:39:37.240Z,23.50
2018-11-26T02:40:37.243Z,23.40
2018-11-26T02:41:37.247Z,22.80
2018-11-26T02:42:37.248Z,23.10
2018-11-26T02:43:37.255Z,24.00
2018-11-26T02:44:37.260Z,22.80
2018-11-26T02:45:37.279Z,23.10
2018-11-26T02:46:37.264Z,24.30
2018-11-26T02:47:37.263Z,22.50
2018-11-26T02:48:37.274Z,23.60
2018-11-26T02:49:37.274Z,22.60
2018-11-26T02:50:37.301Z,23.20
2018-11-26T02:51:37.285Z,23.50
2018-11-26T02:52:37.304Z,23.40
2018-11-26T02:53:37.307Z,23.90
2018-11-26T02:54:37.304Z,23.00
2018-11-26T02:55:37.315Z,24.00
2018-11-26T02:56:37.303Z,23.10
2018-11-26T02:57:37.312Z,23.30
2018-11-26T02:58:37.307Z,23.70
2018-11-26T02:59:37.308Z,23.40
2018-11-26T03:00:37.315Z,22.80
2018-11-26T03:01:37.321Z,23.90
2018-11-26T03:02:37.319Z,23.10
2018-11-26T03:03:37.323Z,24.30
2018-11-26T03:04:37.335Z,23.00
2018-11-26T03:05:37.336Z,23.70
2018-11-26T03:06:37.340Z,23.70
2018-11-26T03:07:37.343Z,23.70
2018-11-26T03:08:37.343Z,22.90
2018-11-26T03:09:37.353Z,23.40
2018-11-26T03:10:37.350Z,22.00
2018-11-26T03:11:37.361Z,23.20
2018-11-26T03:12:37.361Z,23.50
2018-11-26T03:13:37.358Z,23.20
2018-11-26T03:14:37.360Z,23.60
2018-11-26T03:15:37.368Z,23.30
2018-11-26T03:16:37.373Z,24.30
2018-11-26T03:17:37.390Z,23.70
2018-11-26T03:18:37.379Z,24.00
2018-11-26T03:19:37.382Z,24.50
2018-11-26T03:20:37.388Z,24.80
2018-11-26T03:21:37.390Z,24.50
2018-11-26T03:22:37.400Z,24.50
2018-11-26T03:23:37.398Z,24.20
2018-11-26T03:24:37.403Z,23.60
2018-11-26T03:25:37.415Z,24.00
2018-11-26T03:26:37.416Z,22.00
2018-11-26T03:27:37.416Z,23.20
2018-11-26T03:28:37.417Z,23.90
2018-11-26T03:29:37.426Z,24.50
2018-11-26T03:30:37.428Z,24.70
2018-11-26T03:31:37.433Z,24.80
2018-11-26T03:32:37.434Z,25.40
2018-11-26T03:33:37.433Z,23.90
2018-11-26T03:34:37.443Z,24.20
2018-11-26T03:35:37.460Z,24.30
2018-11-26T03:36:37.457Z,25.00
2018-11-26T03:37:37.454Z,24.90
2018-11-26T03:38:37.455Z,24.80
2018-11-26T03:39:37.461Z,23.70
2018-11-26T03:40:37.461Z,23.90
2018-11-26T03:41:37.468Z,23.80
2018-11-26T03:42:37.470Z,24.20
2018-11-26T03:43:37.477Z,24.10
2018-11-26T03:44:37.469Z,23.70
2018-11-26T03:45:37.478Z,24.10
2018-11-26T03:46:37.485Z,24.70
2018-11-26T03:47:37.488Z,24.30
2018-11-26T03:48:37.496Z,22.90
2018-11-26T03:49:37.499Z,24.80
2018-11-26T03:50:37.498Z,23.10
2018-11-26T03:51:37.507Z,24.50
2018-11-26T03:52:37.508Z,24.70
2018-11-26T03:53:37.506Z,23.60
2018-11-26T03:54:37.530Z,23.80
2018-11-26T03:55:37.524Z,23.10
2018-11-26T03:56:37.541Z,24.20
2018-11-26T03:57:37.542Z,23.80
2018-11-26T03:58:37.541Z,24.90
2018-11-26T03:59:37.550Z,24.30
2018-11-26T04:00:37.553Z,24.30
2018-11-26T04:01:37.560Z,23.70
2018-11-26T04:02:37.540Z,23.50
2018-11-26T04:03:37.539Z,24.70
2018-11-26T04:04:37.543Z,24.20
2018-11-26T04:05:37.555Z,23.50
2018-11-26T04:06:37.672Z,24.10
2018-11-26T04:07:37.564Z,24.60
2018-11-26T04:08:37.569Z,24.20
2018-11-26T04:09:37.568Z,23.80
2018-11-26T04:10:37.576Z,23.90
2018-11-26T04:11:37.580Z,24.10
2018-11-26T04:12:37.592Z,24.80
2018-11-26T04:13:37.596Z,24.70
2018-11-26T04:14:37.601Z,24.30
2018-11-26T04:15:37.601Z,24.80
2018-11-26T04:16:37.590Z,25.70
2018-11-26T04:17:37.605Z,22.90
2018-11-26T04:18:37.606Z,25.00
2018-11-26T04:19:37.605Z,24.00
2018-11-26T04:20:37.613Z,24.40
2018-11-26T04:21:37.617Z,23.60
2018-11-26T04:22:37.627Z,23.40
2018-11-26T04:23:37.630Z,23.50
2018-11-26T04:24:37.641Z,24.70
2018-11-26T04:25:37.677Z,23.60
2018-11-26T04:26:37.636Z,24.50
2018-11-26T04:27:37.645Z,24.30
2018-11-26T04:28:37.654Z,24.30
2018-11-26T04:29:37.660Z,23.90
2018-11-26T04:30:37.675Z,24.00
2018-11-26T04:31:37.653Z,24.10
2018-11-26T04:32:37.652Z,25.00
2018-11-26T04:33:37.660Z,25.20
2018-11-26T04:34:37.661Z,23.50
2018-11-26T04:35:37.667Z,24.10
2018-11-26T04:36:37.671Z,23.50
2018-11-26T04:37:37.675Z,24.90
2018-11-26T04:38:37.681Z,23.60
2018-11-26T04:39:37.689Z,24.00
2018-11-26T04:40:37.691Z,24.20
2018-11-26T04:41:37.697Z,23.40
2018-11-26T04:42:37.708Z,25.00
2018-11-26T04:43:37.714Z,24.90
2018-11-26T04:44:37.720Z,24.90
2018-11-26T04:45:37.721Z,25.20
2018-11-26T04:46:37.720Z,24.90
2018-11-26T04:47:37.733Z,24.70
2018-11-26T04:48:37.721Z,25.20
2018-11-26T04:49:37.726Z,25.60
2018-11-26T04:50:37.729Z,25.30
2018-11-26T04:51:37.734Z,24.00
2018-11-26T04:52:37.740Z,23.50
2018-11-26T04:53:37.751Z,23.70
2018-11-26T04:54:37.751Z,24.50
2018-11-26T04:55:37.747Z,22.90
2018-11-26T04:56:37.744Z,23.80
2018-11-26T04:57:42.149Z,23.30
2018-11-26T04:58:37.764Z,24.40
2018-11-26T04:59:37.771Z,24.70
2018-11-26T05:00:37.777Z,24.60
2018-11-26T05:01:37.782Z,24.10
2018-11-26T05:02:37.795Z,23.20
2018-11-26T05:03:37.788Z,23.20
2018-11-26T05:04:37.785Z,24.30
2018-11-26T05:05:37.792Z,24.40
2018-11-26T05:06:37.804Z,23.90
2018-11-26T05:07:37.799Z,23.60
2018-11-26T05:08:37.808Z,23.10
2018-11-26T05:09:37.806Z,23.60
2018-11-26T05:10:37.814Z,23.80
2018-11-26T05:11:37.819Z,24.70
2018-11-26T05:12:37.825Z,22.00
2018-11-26T05:13:37.821Z,23.30
2018-11-26T05:14:37.819Z,23.70
2018-11-26T05:15:37.834Z,24.10
2018-11-26T05:16:37.834Z,22.90
2018-11-26T05:17:37.839Z,22.50
2018-11-26T05:18:37.874Z,22.00
2018-11-26T05:19:37.846Z,22.00
2018-11-26T05:20:37.852Z,21.90
2018-11-26T05:21:37.855Z,22.50
2018-11-26T05:22:37.858Z,24.10
2018-11-26T05:23:37.860Z,22.00
2018-11-26T05:24:37.868Z,22.90
2018-11-26T05:25:37.878Z,22.50
2018-11-26T05:26:37.870Z,22.10
2018-11-26T05:27:37.876Z,22.80
2018-11-26T05:28:37.883Z,23.00
2018-11-26T05:29:37.901Z,23.70
2018-11-26T05:30:37.890Z,23.50
2018-11-26T05:31:37.895Z,23.60
2018-11-26T05:32:37.911Z,23.20
2018-11-26T05:33:37.901Z,24.30
2018-11-26T05:34:37.903Z,23.50
2018-11-26T05:35:37.908Z,23.00
2018-11-26T05:36:37.914Z,23.30
2018-11-26T05:37:37.915Z,23.10
2018-11-26T05:38:37.919Z,22.80
2018-11-26T05:39:37.922Z,23.30
2018-11-26T05:40:37.929Z,24.10
2018-11-26T05:41:37.929Z,22.80
2018-11-26T05:42:37.933Z,22.60
2018-11-26T05:43:37.934Z,23.90
2018-11-26T05:44:37.938Z,23.60
2018-11-26T05:45:37.950Z,24.90
2018-11-26T05:46:37.956Z,22.80
2018-11-26T05:47:37.953Z,23.30
2018-11-26T05:48:37.957Z,23.50
2018-11-26T05:49:37.967Z,23.40
2018-11-26T05:50:37.965Z,23.00
2018-11-26T05:51:37.970Z,23.30
2018-11-26T05:52:37.976Z,24.70
2018-11-26T05:53:37.986Z,23.60
2018-11-26T05:54:37.989Z,22.80
2018-11-26T05:55:37.999Z,23.30
2018-11-26T05:56:37.994Z,23.20
2018-11-26T05:57:37.998Z,22.30
2018-11-26T05:58:38.007Z,23.50
2018-11-26T05:59:37.999Z,23.90
2018-11-26T06:00:38.007Z,24.00
2018-11-26T06:01:38.011Z,24.50
2018-11-26T06:02:38.135Z,23.60
2018-11-26T06:03:38.015Z,23.50
2018-11-26T06:04:38.023Z,25.40
2018-11-26T06:05:38.026Z,24.50
2018-11-26T06:06:38.027Z,24.30
2018-11-26T06:07:38.033Z,23.90
2018-11-26T06:08:38.043Z,23.30
2018-11-26T06:09:38.043Z,24.30
2018-11-26T06:10:38.036Z,24.20
2018-11-26T06:11:38.041Z,23.90
2018-11-26T06:12:38.049Z,24.50
2018-11-26T06:13:38.050Z,24.80
2018-11-26T06:14:38.066Z,23.70
2018-11-26T06:15:38.059Z,23.90
2018-11-26T06:16:38.084Z,23.60
2018-11-26T06:17:38.068Z,22.60
2018-11-26T06:18:38.081Z,23.70
2018-11-26T06:19:38.079Z,24.40
2018-11-26T06:20:38.090Z,24.30
2018-11-26T06:21:38.085Z,24.30
2018-11-26T06:22:38.093Z,24.50
2018-11-26T06:23:38.102Z,23.50
2018-11-26T06:24:38.098Z,23.80
2018-11-26T06:25:38.107Z,23.20
2018-11-26T06:26:38.107Z,24.20
2018-11-26T06:27:38.110Z,24.60
2018-11-26T06:28:38.117Z,24.00
2018-11-26T06:29:38.120Z,24.40
2018-11-26T06:30:38.114Z,25.10
2018-11-26T06:31:38.120Z,26.10
2018-11-26T06:32:38.125Z,26.30
2018-11-26T06:33:38.135Z,27.20
2018-11-26T06:34:42.301Z,25.60
2018-11-26T06:35:38.139Z,26.00
2018-11-26T06:36:38.156Z,24.80
2018-11-26T06:37:38.153Z,25.70
2018-11-26T06:38:38.152Z,23.60
2018-11-26T06:39:38.164Z,24.40
2018-11-26T06:40:38.164Z,24.90
2018-11-26T06:41:38.171Z,25.00
2018-11-26T06:42:38.165Z,26.10
2018-11-26T06:43:38.171Z,24.90
2018-11-26T06:44:38.176Z,22.60
2018-11-26T06:45:38.182Z,23.90
2018-11-26T06:46:38.186Z,23.40
2018-11-26T06:47:38.191Z,23.30
2018-11-26T06:48:38.192Z,24.40
2018-11-26T06:49:38.202Z,24.00
2018-11-26T06:50:38.208Z,23.80
2018-11-26T06:51:38.257Z,24.60
2018-11-26T06:52:38.212Z,24.60
2018-11-26T06:53:38.216Z,24.00
2018-11-26T06:54:38.221Z,23.30
2018-11-26T06:55:38.216Z,24.50
2018-11-26T06:56:38.230Z,23.80
2018-11-26T06:57:38.228Z,24.50
2018-11-26T06:58:38.235Z,22.90
2018-11-26T06:59:38.235Z,24.00
2018-11-26T07:00:38.244Z,23.80
2018-11-26T07:01:38.248Z,24.60
2018-11-26T07:02:38.248Z,24.10
2018-11-26T07:03:38.378Z,24.20
2018-11-26T07:04:38.255Z,25.40
2018-11-26T07:05:38.259Z,23.90
2018-11-26T07:06:38.266Z,23.90
2018-11-26T07:07:38.274Z,24.10
2018-11-26T07:08:38.269Z,25.30
2018-11-26T07:09:38.276Z,24.80
2018-11-26T07:10:38.288Z,24.20
2018-11-26T07:11:38.279Z,25.30
2018-11-26T07:12:38.292Z,25.50
2018-11-26T07:13:38.294Z,26.10
2018-11-26T07:14:38.300Z,26.20
2018-11-26T07:15:38.314Z,26.00
2018-11-26T07:16:38.332Z,25.40
2018-11-26T07:17:38.309Z,24.50
2018-11-26T07:18:38.315Z,26.30
2018-11-26T07:19:38.314Z,28.00
2018-11-26T07:20:38.319Z,29.10
2018-11-26T07:21:38.322Z,26.60
2018-11-26T07:22:38.329Z,27.90
2018-11-26T07:23:38.341Z,27.70
2018-11-26T07:24:38.333Z,28.40
2018-11-26T07:25:38.341Z,27.70
2018-11-26T07:26:38.359Z,28.00
2018-11-26T07:27:38.345Z,28.30
2018-11-26T07:28:38.349Z,28.60
2018-11-26T07:29:38.358Z,28.50
2018-11-26T07:30:38.376Z,28.70
2018-11-26T07:31:38.373Z,28.40
2018-11-26T07:32:38.363Z,27.50
2018-11-26T07:33:38.361Z,27.90
2018-11-26T07:34:38.372Z,28.60
2018-11-26T07:35:38.376Z,27.30
2018-11-26T07:36:38.374Z,28.10
2018-11-26T07:37:38.381Z,28.60
2018-11-26T07:38:38.387Z,28.90
2018-11-26T07:39:38.389Z,29.10
2018-11-26T07:40:38.398Z,28.00
2018-11-26T07:41:38.408Z,27.60
2018-11-26T07:42:38.409Z,28.80
2018-11-26T07:43:38.415Z,28.90
2018-11-26T07:44:38.443Z,28.80
2018-11-26T07:45:38.429Z,29.50
2018-11-26T07:46:38.437Z,27.90
2018-11-26T07:47:38.435Z,28.50
2018-11-26T07:48:38.454Z,28.10
2018-11-26T07:49:38.430Z,28.50
2018-11-26T07:50:38.483Z,27.50
2018-11-26T07:51:38.452Z,27.40
2018-11-26T07:52:38.441Z,28.70
2018-11-26T07:53:38.518Z,28.30
2018-11-26T07:54:38.455Z,28.10
2018-11-26T07:55:38.462Z,28.40
2018-11-26T07:56:38.454Z,26.50
2018-11-26T07:57:38.480Z,22.40
2018-11-26T07:58:38.498Z,28.50
2018-11-26T07:59:38.474Z,25.40
2018-11-26T08:00:38.477Z,24.80
2018-11-26T08:01:38.483Z,29.50
2018-11-26T08:02:38.493Z,29.10
2018-11-26T08:03:38.486Z,30.20
2018-11-26T08:04:38.496Z,29.00
2018-11-26T08:05:38.490Z,32.00
2018-11-26T08:06:38.509Z,30.20
2018-11-26T08:07:38.501Z,29.10
2018-11-26T08:08:38.504Z,29.30
2018-11-26T08:09:38.506Z,29.80
2018-11-26T08:10:38.510Z,31.40
2018-11-26T08:11:38.515Z,31.60
2018-11-26T08:12:38.520Z,31.00
2018-11-26T08:13:38.526Z,30.50
2018-11-26T08:15:38.536Z,30.80
2018-11-26T08:16:38.574Z,31.00
2018-11-26T08:17:38.561Z,31.00
2018-11-26T08:18:38.557Z,31.20
2018-11-26T08:19:38.565Z,30.70
2018-11-26T08:20:38.573Z,31.80
2018-11-26T08:21:38.573Z,29.80
2018-11-26T08:22:38.563Z,26.80
2018-11-26T08:23:38.570Z,31.00
2018-11-26T08:24:38.567Z,31.50
2018-11-26T08:25:38.580Z,32.30
2018-11-26T08:26:38.580Z,32.40
2018-11-26T08:27:38.582Z,33.00
2018-11-26T08:28:38.591Z,32.50
2018-11-26T08:29:38.605Z,29.20
2018-11-26T08:30:38.597Z,29.00
2018-11-26T08:31:38.639Z,32.40
2018-11-26T08:32:38.611Z,31.40
2018-11-26T08:33:38.610Z,31.20
2018-11-26T08:34:38.627Z,29.60
2018-11-26T08:35:38.612Z,32.40
2018-11-26T08:36:38.623Z,31.60
2018-11-26T08:37:38.628Z,31.80
2018-11-26T08:38:38.625Z,32.40
2018-11-26T08:39:38.647Z,32.50
2018-11-26T08:40:38.659Z,33.10
2018-11-26T08:41:38.652Z,31.90
2018-11-26T08:42:38.646Z,31.50
2018-11-26T08:43:38.654Z,28.60
2018-11-26T08:44:38.655Z,32.20
2018-11-26T08:45:38.663Z,33.00
2018-11-26T08:46:38.666Z,33.40
2018-11-26T08:47:38.663Z,32.90
2018-11-26T08:48:38.681Z,32.80
2018-11-26T08:49:38.677Z,32.60
2018-11-26T08:50:38.680Z,32.30
2018-11-26T08:51:38.679Z,32.50
2018-11-26T08:52:38.688Z,32.90
2018-11-26T08:53:38.688Z,31.50
2018-11-26T08:54:38.760Z,33.90
2018-11-26T08:55:38.705Z,31.90
2018-11-26T08:56:38.709Z,33.00
2018-11-26T08:57:38.724Z,33.30
2018-11-26T08:58:38.727Z,34.10
2018-11-26T08:59:38.717Z,33.10
2018-11-26T09:00:38.728Z,33.20
2018-11-26T09:01:39.087Z,33.80
2018-11-26T09:02:38.731Z,36.60
2018-11-26T09:03:38.739Z,39.10
2018-11-26T09:04:38.780Z,33.60
2018-11-26T09:05:38.744Z,32.90
2018-11-26T09:06:38.753Z,33.90
2018-11-26T09:07:38.754Z,33.80
2018-11-26T09:08:38.753Z,33.30
2018-11-26T09:09:38.757Z,33.80
2018-11-26T09:10:38.795Z,33.10
2018-11-26T09:11:38.768Z,32.60
2018-11-26T09:12:38.777Z,33.10
2018-11-26T09:13:38.777Z,33.50
2018-11-26T09:14:38.788Z,32.70
2018-11-26T09:15:38.786Z,33.80
2018-11-26T09:16:38.782Z,32.30
2018-11-26T09:17:38.803Z,33.10
2018-11-26T09:18:38.791Z,32.60
2018-11-26T09:19:38.801Z,33.60
2018-11-26T09:20:38.807Z,34.00
2018-11-26T09:21:38.809Z,32.70
2018-11-26T09:22:38.825Z,32.20
2018-11-26T09:23:38.812Z,32.20
2018-11-26T09:24:38.824Z,33.80
2018-11-26T09:25:38.827Z,33.30
2018-11-26T09:26:38.830Z,33.10
2018-11-26T09:27:38.845Z,33.40
2018-11-26T09:28:38.881Z,34.80
2018-11-26T09:29:38.851Z,33.20
2018-11-26T09:30:38.855Z,34.50
2018-11-26T09:31:38.857Z,32.50
2018-11-26T09:32:38.890Z,33.40
2018-11-26T09:33:38.877Z,33.10
2018-11-26T09:34:38.885Z,33.70
2018-11-26T09:35:38.893Z,32.30
2018-11-26T09:36:38.909Z,31.90
2018-11-26T09:37:38.915Z,36.20
2018-11-26T09:38:38.915Z,35.10
2018-11-26T09:39:38.896Z,35.80
2018-11-26T09:40:38.904Z,31.80
2018-11-26T09:41:40.104Z,34.20
2018-11-26T09:42:38.916Z,29.60
2018-11-26T09:43:38.923Z,33.70
2018-11-26T09:44:38.928Z,35.80
2018-11-26T09:45:40.449Z,36.30
2018-11-26T09:46:38.940Z,35.10
2018-11-26T09:47:38.939Z,35.60
2018-11-26T09:48:38.957Z,34.30
2018-11-26T09:49:39.160Z,35.70
2018-11-26T09:50:38.955Z,36.20
2018-11-26T09:51:42.131Z,35.60
2018-11-26T09:52:38.958Z,35.80
2018-11-26T09:53:38.968Z,36.80
2018-11-26T09:54:38.966Z,36.20
2018-11-26T09:55:38.971Z,34.90
2018-11-26T09:56:38.984Z,37.30
2018-11-26T09:57:38.991Z,36.10
2018-11-26T09:58:38.999Z,36.60
2018-11-26T09:59:38.983Z,36.70
2018-11-26T10:00:39.005Z,38.00
2018-11-26T10:01:38.992Z,34.70
2018-11-26T10:02:38.997Z,35.10
2018-11-26T10:03:39.001Z,34.70
2018-11-26T10:05:39.016Z,35.00
2018-11-26T10:06:39.020Z,34.70
2018-11-26T10:07:39.024Z,35.30
2018-11-26T10:08:39.033Z,33.70
2018-11-26T10:09:39.031Z,33.20
2018-11-26T10:10:39.058Z,31.90
2018-11-26T10:11:39.057Z,35.00
2018-11-26T10:12:39.047Z,36.40
2018-11-26T10:13:39.061Z,37.00
2018-11-26T10:14:39.066Z,36.90
2018-11-26T10:15:39.064Z,32.20
2018-11-26T10:16:39.074Z,32.80
2018-11-26T10:17:39.087Z,31.30
2018-11-26T10:18:39.080Z,32.60
2018-11-26T10:19:39.086Z,32.70
2018-11-26T10:20:39.093Z,32.40
2018-11-26T10:21:39.097Z,31.70
2018-11-26T10:22:39.100Z,32.10
2018-11-26T10:23:39.111Z,27.30
2018-11-26T10:24:39.110Z,31.30
2018-11-26T10:25:39.108Z,30.90
2018-11-26T10:26:39.115Z,31.30
2018-11-26T10:27:39.120Z,30.40
2018-11-26T10:28:39.128Z,31.20
2018-11-26T10:29:39.124Z,31.50
2018-11-26T10:30:39.151Z,33.00
2018-11-26T10:31:39.155Z,32.60
2018-11-26T10:32:39.156Z,31.90
2018-11-26T10:33:39.163Z,31.90
2018-11-26T10:34:39.155Z,31.90
2018-11-26T10:35:39.159Z,30.50
2018-11-26T10:36:39.171Z,30.40
2018-11-26T10:37:39.163Z,30.40
2018-11-26T10:38:39.175Z,28.60
2018-11-26T10:39:39.184Z,29.10
2018-11-26T10:40:39.192Z,28.70
2018-11-26T10:41:39.190Z,30.90
2018-11-26T10:43:39.201Z,29.50
2018-11-26T10:44:39.204Z,30.60
2018-11-26T10:45:39.213Z,30.40
2018-11-26T10:46:39.247Z,31.90
2018-11-26T10:47:39.216Z,31.30
2018-11-26T10:48:39.221Z,30.00
2018-11-26T10:49:39.232Z,30.50
2018-11-26T10:50:39.240Z,30.30
2018-11-26T10:52:39.248Z,32.50
2018-11-26T10:53:39.246Z,30.30
2018-11-26T10:54:39.259Z,29.20
2018-11-26T10:55:39.254Z,28.90
2018-11-26T10:56:39.261Z,31.20
2018-11-26T10:57:39.270Z,30.40
2018-11-26T10:58:39.307Z,31.70
2018-11-26T10:59:39.282Z,31.20
2018-11-26T11:01:39.289Z,28.70
2018-11-26T11:02:39.291Z,26.60
2018-11-26T11:03:39.305Z,31.10
2018-11-26T11:04:39.308Z,30.60
2018-11-26T11:05:39.319Z,29.90
2018-11-26T11:06:39.321Z,30.40
2018-11-26T11:07:39.336Z,32.20
2018-11-26T11:08:39.328Z,31.70
2018-11-26T11:09:39.326Z,32.80
2018-11-26T11:10:39.330Z,31.90
2018-11-26T11:11:39.338Z,30.90
2018-11-26T11:12:39.345Z,32.20
2018-11-26T11:13:40.613Z,33.90
2018-11-26T11:14:39.354Z,35.00
2018-11-26T11:15:39.356Z,30.80
2018-11-26T11:16:39.358Z,30.20
2018-11-26T11:17:39.367Z,32.10
2018-11-26T11:18:39.370Z,29.70
2018-11-26T11:19:39.617Z,29.20
2018-11-26T11:20:39.384Z,27.30
2018-11-26T11:21:39.402Z,28.70
2018-11-26T11:22:39.402Z,30.40
2018-11-26T11:23:39.397Z,29.30
2018-11-26T11:24:39.402Z,30.90
2018-11-26T11:25:39.406Z,28.80
2018-11-26T11:26:39.415Z,29.90
2018-11-26T11:27:39.415Z,31.10
2018-11-26T11:28:39.420Z,29.90
2018-11-26T11:29:39.431Z,29.90
2018-11-26T11:30:39.441Z,30.10
2018-11-26T11:31:39.431Z,33.00
2018-11-26T11:32:39.435Z,30.00
2018-11-26T11:33:39.447Z,30.10
2018-11-26T11:35:39.454Z,29.60
2018-11-26T11:36:39.472Z,30.50
2018-11-26T11:38:39.474Z,30.60
2018-11-26T11:39:39.478Z,30.50
2018-11-26T11:40:39.473Z,30.80
2018-11-26T11:41:39.479Z,29.60
2018-11-26T11:42:39.495Z,28.50
2018-11-26T11:43:39.511Z,29.20
2018-11-26T11:44:39.509Z,30.70
2018-11-26T11:45:39.505Z,29.80
2018-11-26T11:46:39.505Z,30.70
2018-11-26T11:47:39.514Z,29.70
2018-11-26T11:48:39.514Z,29.60
2018-11-26T11:49:39.521Z,29.10
2018-11-26T11:50:39.532Z,29.50
2018-11-26T11:51:39.540Z,29.40
2018-11-26T11:53:39.592Z,31.30
2018-11-26T11:54:39.550Z,29.90
2018-11-26T11:55:39.553Z,28.90
2018-11-26T11:56:39.562Z,28.70
2018-11-26T11:57:39.572Z,29.50
2018-11-26T11:58:39.563Z,29.80
2018-11-26T11:59:39.566Z,28.10
2018-11-26T12:00:39.573Z,34.80
2018-11-26T12:01:39.579Z,30.70
2018-11-26T12:02:39.588Z,28.50
2018-11-26T12:03:39.597Z,27.10
2018-11-26T12:05:39.602Z,28.30
2018-11-26T12:06:39.605Z,28.80
2018-11-26T12:07:39.610Z,25.50
2018-11-26T12:08:39.619Z,27.90
2018-11-26T12:09:39.624Z,28.40
2018-11-26T12:10:39.615Z,29.30
2018-11-26T12:11:39.633Z,28.20
2018-11-26T12:12:39.638Z,28.20
2018-11-26T12:13:39.635Z,28.90
2018-11-26T12:14:39.637Z,28.40
2018-11-26T12:15:39.652Z,27.10
2018-11-26T12:16:39.644Z,28.30
2018-11-26T12:17:39.663Z,27.60
2018-11-26T12:18:39.655Z,29.50
2018-11-26T12:19:39.664Z,27.10
2018-11-26T12:20:39.750Z,26.20
2018-11-26T12:21:39.672Z,27.10
2018-11-26T12:22:39.683Z,26.30
2018-11-26T12:23:39.674Z,27.00
2018-11-26T12:26:39.694Z,27.30
2018-11-26T12:27:39.694Z,25.50
2018-11-26T12:28:39.700Z,26.00
2018-11-26T12:29:39.707Z,28.40
2018-11-26T12:30:39.720Z,27.80
2018-11-26T12:31:39.724Z,27.40
2018-11-26T12:32:39.734Z,26.70
2018-11-26T12:33:39.720Z,26.40
2018-11-26T12:34:39.730Z,26.40
2018-11-26T12:35:39.745Z,26.80
2018-11-26T12:36:39.743Z,25.30
2018-11-26T12:37:39.736Z,26.30
2018-11-26T12:38:39.747Z,26.90
2018-11-26T12:39:39.750Z,26.40
2018-11-26T12:40:39.757Z,28.20
2018-11-26T12:41:39.757Z,26.10
2018-11-26T12:42:39.770Z,26.00
2018-11-26T12:43:39.767Z,27.40
2018-11-26T12:44:39.781Z,27.30
2018-11-26T12:45:39.791Z,27.60
2018-11-26T12:46:39.815Z,26.70
2018-11-26T12:47:39.800Z,28.30
2018-11-26T12:48:39.793Z,26.70
2018-11-26T12:49:39.797Z,26.10
2018-11-26T12:50:39.808Z,24.90
2018-11-26T12:51:39.816Z,27.40
2018-11-26T12:52:39.810Z,27.90
2018-11-26T12:53:39.815Z,26.40
2018-11-26T12:54:39.826Z,28.30
2018-11-26T12:55:39.838Z,26.70
2018-11-26T12:56:39.829Z,27.90
2018-11-26T12:57:39.831Z,27.20
2018-11-26T12:58:39.836Z,26.90
2018-11-26T12:59:39.831Z,27.20
2018-11-26T13:01:39.862Z,26.30
2018-11-26T13:03:39.870Z,26.60
2018-11-26T13:04:39.869Z,27.20
2018-11-26T13:05:39.865Z,25.80
2018-11-26T13:06:39.866Z,26.40
2018-11-26T13:07:39.875Z,27.70
2018-11-26T13:08:39.921Z,28.20
2018-11-26T13:09:39.889Z,26.60